sensor_id;sensor_type;location;lat;lon;timestamp;P1;durP1;ratioP1;P2;durP2;ratioP2
12441;SDS011;6285;48.804;9.220;2023-03-31T00:02:20;5.32;;;1.85;;
12441;SDS011;6285;48.804;9.220;2023-03-31T00:04:47;5.00;;;1.58;;
12441;SDS011;6285;48.804;9.220;2023-03-31T00:07:17;5.10;;;1.98;;
12441;SDS011;6285;48.804;9.220;2023-03-31T00:09:48;4.40;;;1.80;;
12441;SDS011;6285;48.804;9.220;2023-03-31T00:12:20;4.53;;;1.70;;
12441;SDS011;6285;48.804;9.220;2023-03-31T00:14:47;5.70;;;1.70;;
12441;SDS011;6285;48.804;9.220;2023-03-31T00:17:14;6.70;;;2.03;;
12441;SDS011;6285;48.804;9.220;2023-03-31T00:19:42;6.90;;;2.15;;
12441;SDS011;6285;48.804;9.220;2023-03-31T00:22:09;5.22;;;1.73;;
12441;SDS011;6285;48.804;9.220;2023-03-31T00:24:36;2.80;;;1.50;;
12441;SDS011;6285;48.804;9.220;2023-03-31T00:27:03;4.72;;;1.70;;
12441;SDS011;6285;48.804;9.220;2023-03-31T00:29:32;6.50;;;2.10;;
12441;SDS011;6285;48.804;9.220;2023-03-31T00:31:59;6.72;;;2.10;;
12441;SDS011;6285;48.804;9.220;2023-03-31T00:34:27;9.15;;;1.80;;
12441;SDS011;6285;48.804;9.220;2023-03-31T00:36:54;5.78;;;1.90;;
12441;SDS011;6285;48.804;9.220;2023-03-31T00:39:26;5.75;;;2.15;;
12441;SDS011;6285;48.804;9.220;2023-03-31T00:41:56;6.82;;;2.25;;
12441;SDS011;6285;48.804;9.220;2023-03-31T00:44:23;6.07;;;1.92;;
12441;SDS011;6285;48.804;9.220;2023-03-31T00:46:53;6.10;;;2.03;;
12441;SDS011;6285;48.804;9.220;2023-03-31T00:49:22;8.52;;;2.28;;
12441;SDS011;6285;48.804;9.220;2023-03-31T00:51:51;10.82;;;2.45;;
12441;SDS011;6285;48.804;9.220;2023-03-31T00:54:19;6.78;;;2.15;;
12441;SDS011;6285;48.804;9.220;2023-03-31T00:56:47;5.72;;;2.50;;
12441;SDS011;6285;48.804;9.220;2023-03-31T00:59:17;8.00;;;2.72;;
12441;SDS011;6285;48.804;9.220;2023-03-31T01:01:44;6.53;;;2.40;;
12441;SDS011;6285;48.804;9.220;2023-03-31T01:04:15;5.07;;;2.20;;
12441;SDS011;6285;48.804;9.220;2023-03-31T01:06:48;5.38;;;2.15;;
12441;SDS011;6285;48.804;9.220;2023-03-31T01:09:21;5.25;;;2.08;;
12441;SDS011;6285;48.804;9.220;2023-03-31T01:11:49;7.97;;;2.20;;
12441;SDS011;6285;48.804;9.220;2023-03-31T01:14:16;3.17;;;1.80;;
12441;SDS011;6285;48.804;9.220;2023-03-31T01:16:43;8.68;;;2.20;;
12441;SDS011;6285;48.804;9.220;2023-03-31T01:19:12;5.13;;;2.10;;
12441;SDS011;6285;48.804;9.220;2023-03-31T01:22:11;5.57;;;1.80;;
12441;SDS011;6285;48.804;9.220;2023-03-31T01:24:46;4.50;;;1.65;;
12441;SDS011;6285;48.804;9.220;2023-03-31T01:27:25;7.22;;;2.10;;
12441;SDS011;6285;48.804;9.220;2023-03-31T01:30:09;5.80;;;1.73;;
12441;SDS011;6285;48.804;9.220;2023-03-31T01:35:45;4.50;;;1.90;;
12441;SDS011;6285;48.804;9.220;2023-03-31T01:38:31;6.53;;;1.90;;
12441;SDS011;6285;48.804;9.220;2023-03-31T01:41:05;6.93;;;2.28;;
12441;SDS011;6285;48.804;9.220;2023-03-31T01:43:36;6.50;;;2.13;;
12441;SDS011;6285;48.804;9.220;2023-03-31T01:46:08;7.28;;;2.55;;
12441;SDS011;6285;48.804;9.220;2023-03-31T01:48:38;8.90;;;2.70;;
12441;SDS011;6285;48.804;9.220;2023-03-31T01:51:09;6.25;;;2.38;;
12441;SDS011;6285;48.804;9.220;2023-03-31T01:53:41;5.40;;;1.80;;
12441;SDS011;6285;48.804;9.220;2023-03-31T01:56:12;6.10;;;2.35;;
12441;SDS011;6285;48.804;9.220;2023-03-31T01:58:42;6.25;;;2.17;;
12441;SDS011;6285;48.804;9.220;2023-03-31T02:01:13;5.70;;;2.20;;
12441;SDS011;6285;48.804;9.220;2023-03-31T02:03:43;7.07;;;2.35;;
12441;SDS011;6285;48.804;9.220;2023-03-31T02:06:12;6.50;;;2.25;;
12441;SDS011;6285;48.804;9.220;2023-03-31T02:08:41;6.05;;;1.90;;
12441;SDS011;6285;48.804;9.220;2023-03-31T02:11:13;7.65;;;1.75;;
12441;SDS011;6285;48.804;9.220;2023-03-31T02:13:41;5.38;;;2.05;;
12441;SDS011;6285;48.804;9.220;2023-03-31T02:16:09;3.58;;;1.58;;
12441;SDS011;6285;48.804;9.220;2023-03-31T02:18:41;3.97;;;1.60;;
12441;SDS011;6285;48.804;9.220;2023-03-31T02:21:08;6.45;;;1.55;;
12441;SDS011;6285;48.804;9.220;2023-03-31T02:23:36;5.78;;;1.60;;
12441;SDS011;6285;48.804;9.220;2023-03-31T02:26:06;4.95;;;1.67;;
12441;SDS011;6285;48.804;9.220;2023-03-31T02:28:37;5.63;;;2.13;;
12441;SDS011;6285;48.804;9.220;2023-03-31T02:31:12;5.15;;;1.80;;
12441;SDS011;6285;48.804;9.220;2023-03-31T02:33:42;5.43;;;2.15;;
12441;SDS011;6285;48.804;9.220;2023-03-31T02:36:09;6.05;;;2.00;;
12441;SDS011;6285;48.804;9.220;2023-03-31T02:38:37;4.60;;;1.70;;
12441;SDS011;6285;48.804;9.220;2023-03-31T02:41:05;4.97;;;2.20;;
12441;SDS011;6285;48.804;9.220;2023-03-31T02:43:33;4.57;;;1.63;;
12441;SDS011;6285;48.804;9.220;2023-03-31T02:46:01;5.22;;;1.88;;
12441;SDS011;6285;48.804;9.220;2023-03-31T02:48:29;8.00;;;2.20;;
12441;SDS011;6285;48.804;9.220;2023-03-31T02:51:10;4.57;;;1.90;;
12441;SDS011;6285;48.804;9.220;2023-03-31T02:53:43;5.35;;;1.90;;
12441;SDS011;6285;48.804;9.220;2023-03-31T02:56:21;7.63;;;2.22;;
12441;SDS011;6285;48.804;9.220;2023-03-31T02:58:55;5.75;;;2.08;;
12441;SDS011;6285;48.804;9.220;2023-03-31T03:01:48;4.78;;;1.92;;
12441;SDS011;6285;48.804;9.220;2023-03-31T03:04:28;6.05;;;1.95;;
12441;SDS011;6285;48.804;9.220;2023-03-31T03:07:00;6.15;;;2.28;;
12441;SDS011;6285;48.804;9.220;2023-03-31T03:09:34;5.53;;;2.13;;
12441;SDS011;6285;48.804;9.220;2023-03-31T03:12:12;6.03;;;1.83;;
12441;SDS011;6285;48.804;9.220;2023-03-31T03:14:43;7.05;;;2.20;;
12441;SDS011;6285;48.804;9.220;2023-03-31T03:17:15;7.10;;;2.38;;
12441;SDS011;6285;48.804;9.220;2023-03-31T03:19:49;6.47;;;2.40;;
12441;SDS011;6285;48.804;9.220;2023-03-31T03:22:16;5.82;;;2.20;;
12441;SDS011;6285;48.804;9.220;2023-03-31T03:24:43;4.72;;;2.13;;
12441;SDS011;6285;48.804;9.220;2023-03-31T03:27:10;5.63;;;2.15;;
12441;SDS011;6285;48.804;9.220;2023-03-31T03:29:37;6.60;;;1.98;;
12441;SDS011;6285;48.804;9.220;2023-03-31T03:32:05;6.50;;;2.88;;
12441;SDS011;6285;48.804;9.220;2023-03-31T03:34:34;6.00;;;2.40;;
12441;SDS011;6285;48.804;9.220;2023-03-31T03:37:01;4.68;;;2.17;;
12441;SDS011;6285;48.804;9.220;2023-03-31T03:39:28;4.38;;;2.38;;
12441;SDS011;6285;48.804;9.220;2023-03-31T03:41:55;6.47;;;2.15;;
12441;SDS011;6285;48.804;9.220;2023-03-31T03:44:22;5.72;;;2.20;;
12441;SDS011;6285;48.804;9.220;2023-03-31T03:46:49;5.45;;;2.38;;
12441;SDS011;6285;48.804;9.220;2023-03-31T03:49:16;5.32;;;2.03;;
12441;SDS011;6285;48.804;9.220;2023-03-31T03:51:45;4.80;;;2.47;;
12441;SDS011;6285;48.804;9.220;2023-03-31T03:54:12;7.03;;;2.33;;
12441;SDS011;6285;48.804;9.220;2023-03-31T03:56:39;5.18;;;2.33;;
12441;SDS011;6285;48.804;9.220;2023-03-31T03:59:07;4.32;;;2.30;;
12441;SDS011;6285;48.804;9.220;2023-03-31T04:01:34;4.45;;;2.13;;
12441;SDS011;6285;48.804;9.220;2023-03-31T04:04:01;4.25;;;2.50;;
12441;SDS011;6285;48.804;9.220;2023-03-31T04:06:28;4.60;;;2.00;;
12441;SDS011;6285;48.804;9.220;2023-03-31T04:08:56;5.78;;;2.35;;
12441;SDS011;6285;48.804;9.220;2023-03-31T04:11:23;5.05;;;2.50;;
12441;SDS011;6285;48.804;9.220;2023-03-31T04:13:50;3.65;;;2.40;;
12441;SDS011;6285;48.804;9.220;2023-03-31T04:16:17;5.50;;;2.45;;
12441;SDS011;6285;48.804;9.220;2023-03-31T04:18:44;6.53;;;2.95;;
12441;SDS011;6285;48.804;9.220;2023-03-31T04:21:13;7.35;;;3.20;;
12441;SDS011;6285;48.804;9.220;2023-03-31T04:23:47;7.50;;;2.60;;
12441;SDS011;6285;48.804;9.220;2023-03-31T04:26:16;5.72;;;2.70;;
12441;SDS011;6285;48.804;9.220;2023-03-31T04:28:50;7.50;;;2.90;;
12441;SDS011;6285;48.804;9.220;2023-03-31T04:31:17;6.53;;;2.35;;
12441;SDS011;6285;48.804;9.220;2023-03-31T04:33:49;5.03;;;2.83;;
12441;SDS011;6285;48.804;9.220;2023-03-31T04:36:16;9.02;;;3.47;;
12441;SDS011;6285;48.804;9.220;2023-03-31T04:38:43;6.88;;;3.10;;
12441;SDS011;6285;48.804;9.220;2023-03-31T04:41:11;5.72;;;2.80;;
12441;SDS011;6285;48.804;9.220;2023-03-31T04:43:40;7.30;;;3.30;;
12441;SDS011;6285;48.804;9.220;2023-03-31T04:46:07;6.07;;;2.95;;
12441;SDS011;6285;48.804;9.220;2023-03-31T04:48:34;5.43;;;3.20;;
12441;SDS011;6285;48.804;9.220;2023-03-31T04:51:02;7.78;;;3.45;;
12441;SDS011;6285;48.804;9.220;2023-03-31T04:53:29;6.22;;;2.75;;
12441;SDS011;6285;48.804;9.220;2023-03-31T04:55:56;8.30;;;3.15;;
12441;SDS011;6285;48.804;9.220;2023-03-31T04:58:23;6.95;;;3.22;;
12441;SDS011;6285;48.804;9.220;2023-03-31T05:00:51;7.53;;;3.22;;
12441;SDS011;6285;48.804;9.220;2023-03-31T05:03:18;8.00;;;3.17;;
12441;SDS011;6285;48.804;9.220;2023-03-31T05:05:46;6.10;;;3.00;;
12441;SDS011;6285;48.804;9.220;2023-03-31T05:08:13;6.93;;;3.05;;
12441;SDS011;6285;48.804;9.220;2023-03-31T05:10:40;5.85;;;2.70;;
12441;SDS011;6285;48.804;9.220;2023-03-31T05:13:07;6.22;;;3.20;;
12441;SDS011;6285;48.804;9.220;2023-03-31T05:15:36;8.23;;;3.72;;
12441;SDS011;6285;48.804;9.220;2023-03-31T05:18:05;6.97;;;3.15;;
12441;SDS011;6285;48.804;9.220;2023-03-31T05:20:32;7.10;;;3.45;;
12441;SDS011;6285;48.804;9.220;2023-03-31T05:22:59;5.57;;;2.90;;
12441;SDS011;6285;48.804;9.220;2023-03-31T05:25:26;8.30;;;3.60;;
12441;SDS011;6285;48.804;9.220;2023-03-31T05:27:57;9.00;;;4.05;;
12441;SDS011;6285;48.804;9.220;2023-03-31T05:30:24;9.32;;;3.58;;
12441;SDS011;6285;48.804;9.220;2023-03-31T05:32:51;8.15;;;4.15;;
12441;SDS011;6285;48.804;9.220;2023-03-31T05:35:20;7.55;;;4.10;;
12441;SDS011;6285;48.804;9.220;2023-03-31T05:37:53;10.10;;;4.07;;
12441;SDS011;6285;48.804;9.220;2023-03-31T05:40:20;10.02;;;4.40;;
12441;SDS011;6285;48.804;9.220;2023-03-31T05:42:47;7.53;;;3.50;;
12441;SDS011;6285;48.804;9.220;2023-03-31T05:45:14;8.57;;;4.55;;
12441;SDS011;6285;48.804;9.220;2023-03-31T05:47:41;8.23;;;4.60;;
12441;SDS011;6285;48.804;9.220;2023-03-31T05:50:08;9.25;;;4.28;;
12441;SDS011;6285;48.804;9.220;2023-03-31T05:52:37;9.38;;;4.70;;
12441;SDS011;6285;48.804;9.220;2023-03-31T05:55:04;12.30;;;6.07;;
12441;SDS011;6285;48.804;9.220;2023-03-31T05:57:32;12.73;;;5.72;;
12441;SDS011;6285;48.804;9.220;2023-03-31T05:59:59;9.00;;;5.50;;
12441;SDS011;6285;48.804;9.220;2023-03-31T06:02:26;8.98;;;4.88;;
12441;SDS011;6285;48.804;9.220;2023-03-31T06:04:53;10.93;;;5.30;;
12441;SDS011;6285;48.804;9.220;2023-03-31T06:07:22;10.95;;;4.57;;
12441;SDS011;6285;48.804;9.220;2023-03-31T06:09:51;8.85;;;5.00;;
12441;SDS011;6285;48.804;9.220;2023-03-31T06:12:18;7.82;;;4.88;;
12441;SDS011;6285;48.804;9.220;2023-03-31T06:14:45;9.57;;;5.15;;
12441;SDS011;6285;48.804;9.220;2023-03-31T06:17:12;10.35;;;4.80;;
12441;SDS011;6285;48.804;9.220;2023-03-31T06:19:39;9.90;;;5.00;;
12441;SDS011;6285;48.804;9.220;2023-03-31T06:22:06;11.88;;;5.18;;
12441;SDS011;6285;48.804;9.220;2023-03-31T06:24:34;14.38;;;6.10;;
12441;SDS011;6285;48.804;9.220;2023-03-31T06:27:02;11.63;;;6.65;;
12441;SDS011;6285;48.804;9.220;2023-03-31T06:29:29;10.00;;;5.15;;
12441;SDS011;6285;48.804;9.220;2023-03-31T06:31:56;10.68;;;5.65;;
12441;SDS011;6285;48.804;9.220;2023-03-31T06:34:25;10.25;;;5.35;;
12441;SDS011;6285;48.804;9.220;2023-03-31T06:36:52;11.52;;;5.47;;
12441;SDS011;6285;48.804;9.220;2023-03-31T06:39:19;9.20;;;5.13;;
12441;SDS011;6285;48.804;9.220;2023-03-31T06:41:46;9.15;;;4.72;;
12441;SDS011;6285;48.804;9.220;2023-03-31T06:44:15;11.43;;;5.55;;
12441;SDS011;6285;48.804;9.220;2023-03-31T06:46:43;10.45;;;5.15;;
12441;SDS011;6285;48.804;9.220;2023-03-31T06:49:10;9.40;;;5.22;;
12441;SDS011;6285;48.804;9.220;2023-03-31T06:51:37;12.40;;;5.88;;
12441;SDS011;6285;48.804;9.220;2023-03-31T06:54:04;11.27;;;5.57;;
12441;SDS011;6285;48.804;9.220;2023-03-31T06:56:32;14.25;;;6.10;;
12441;SDS011;6285;48.804;9.220;2023-03-31T06:58:59;12.40;;;5.88;;
12441;SDS011;6285;48.804;9.220;2023-03-31T07:01:27;12.95;;;6.07;;
12441;SDS011;6285;48.804;9.220;2023-03-31T07:03:55;9.45;;;5.43;;
12441;SDS011;6285;48.804;9.220;2023-03-31T07:06:22;9.88;;;5.72;;
12441;SDS011;6285;48.804;9.220;2023-03-31T07:08:49;14.48;;;6.47;;
12441;SDS011;6285;48.804;9.220;2023-03-31T07:11:16;10.00;;;5.78;;
12441;SDS011;6285;48.804;9.220;2023-03-31T07:13:44;13.18;;;6.03;;
12441;SDS011;6285;48.804;9.220;2023-03-31T07:16:11;10.57;;;6.13;;
12441;SDS011;6285;48.804;9.220;2023-03-31T07:18:39;10.55;;;5.47;;
12441;SDS011;6285;48.804;9.220;2023-03-31T07:21:07;9.77;;;5.07;;
12441;SDS011;6285;48.804;9.220;2023-03-31T07:23:34;8.35;;;4.30;;
12441;SDS011;6285;48.804;9.220;2023-03-31T07:26:01;8.80;;;4.13;;
12441;SDS011;6285;48.804;9.220;2023-03-31T07:28:28;5.95;;;3.85;;
12441;SDS011;6285;48.804;9.220;2023-03-31T07:30:55;7.05;;;4.00;;
12441;SDS011;6285;48.804;9.220;2023-03-31T07:33:23;5.05;;;3.20;;
12441;SDS011;6285;48.804;9.220;2023-03-31T07:35:51;3.95;;;2.88;;
12441;SDS011;6285;48.804;9.220;2023-03-31T07:38:18;6.75;;;3.05;;
12441;SDS011;6285;48.804;9.220;2023-03-31T07:40:45;6.70;;;3.08;;
12441;SDS011;6285;48.804;9.220;2023-03-31T07:43:12;6.05;;;2.72;;
12441;SDS011;6285;48.804;9.220;2023-03-31T07:45:39;4.55;;;2.70;;
12441;SDS011;6285;48.804;9.220;2023-03-31T07:48:06;5.10;;;2.40;;
12441;SDS011;6285;48.804;9.220;2023-03-31T07:50:33;3.78;;;2.10;;
12441;SDS011;6285;48.804;9.220;2023-03-31T07:53:02;4.90;;;2.00;;
12441;SDS011;6285;48.804;9.220;2023-03-31T07:55:29;2.88;;;2.10;;
12441;SDS011;6285;48.804;9.220;2023-03-31T07:57:56;2.92;;;2.15;;
12441;SDS011;6285;48.804;9.220;2023-03-31T08:00:23;3.30;;;2.03;;
12441;SDS011;6285;48.804;9.220;2023-03-31T08:02:51;2.80;;;1.80;;
12441;SDS011;6285;48.804;9.220;2023-03-31T08:05:18;3.72;;;1.30;;
12441;SDS011;6285;48.804;9.220;2023-03-31T08:07:46;2.70;;;1.40;;
12441;SDS011;6285;48.804;9.220;2023-03-31T08:10:16;2.92;;;1.30;;
12441;SDS011;6285;48.804;9.220;2023-03-31T08:12:43;3.70;;;2.15;;
12441;SDS011;6285;48.804;9.220;2023-03-31T08:15:10;2.55;;;1.00;;
12441;SDS011;6285;48.804;9.220;2023-03-31T08:17:37;9.88;;;2.15;;
12441;SDS011;6285;48.804;9.220;2023-03-31T08:20:05;2.78;;;1.17;;
12441;SDS011;6285;48.804;9.220;2023-03-31T08:22:34;7.78;;;3.70;;
12441;SDS011;6285;48.804;9.220;2023-03-31T08:25:01;4.03;;;2.60;;
12441;SDS011;6285;48.804;9.220;2023-03-31T08:27:32;2.35;;;1.40;;
12441;SDS011;6285;48.804;9.220;2023-03-31T08:29:59;2.22;;;0.93;;
12441;SDS011;6285;48.804;9.220;2023-03-31T08:32:29;3.40;;;1.92;;
12441;SDS011;6285;48.804;9.220;2023-03-31T08:34:56;1.90;;;0.95;;
12441;SDS011;6285;48.804;9.220;2023-03-31T08:37:23;8.48;;;1.58;;
12441;SDS011;6285;48.804;9.220;2023-03-31T08:39:52;2.00;;;1.15;;
12441;SDS011;6285;48.804;9.220;2023-03-31T08:42:19;9.52;;;2.72;;
12441;SDS011;6285;48.804;9.220;2023-03-31T08:44:50;2.42;;;1.02;;
12441;SDS011;6285;48.804;9.220;2023-03-31T08:47:21;2.17;;;1.40;;
12441;SDS011;6285;48.804;9.220;2023-03-31T08:49:50;3.17;;;1.27;;
12441;SDS011;6285;48.804;9.220;2023-03-31T08:52:21;1.52;;;0.95;;
12441;SDS011;6285;48.804;9.220;2023-03-31T08:54:49;4.35;;;2.08;;
12441;SDS011;6285;48.804;9.220;2023-03-31T08:57:18;4.78;;;2.95;;
12441;SDS011;6285;48.804;9.220;2023-03-31T08:59:46;3.78;;;1.40;;
12441;SDS011;6285;48.804;9.220;2023-03-31T09:02:19;2.85;;;1.08;;
12441;SDS011;6285;48.804;9.220;2023-03-31T09:05:04;3.35;;;1.58;;
12441;SDS011;6285;48.804;9.220;2023-03-31T09:07:37;2.72;;;1.40;;
12441;SDS011;6285;48.804;9.220;2023-03-31T09:10:25;2.83;;;1.30;;
12441;SDS011;6285;48.804;9.220;2023-03-31T09:12:59;3.53;;;1.40;;
12441;SDS011;6285;48.804;9.220;2023-03-31T09:15:29;3.05;;;1.55;;
12441;SDS011;6285;48.804;9.220;2023-03-31T09:18:01;3.88;;;1.50;;
12441;SDS011;6285;48.804;9.220;2023-03-31T09:20:29;2.67;;;1.30;;
12441;SDS011;6285;48.804;9.220;2023-03-31T09:22:59;3.47;;;1.38;;
12441;SDS011;6285;48.804;9.220;2023-03-31T09:25:27;4.63;;;1.42;;
12441;SDS011;6285;48.804;9.220;2023-03-31T09:27:57;3.25;;;1.33;;
12441;SDS011;6285;48.804;9.220;2023-03-31T09:30:26;2.05;;;1.08;;
12441;SDS011;6285;48.804;9.220;2023-03-31T09:32:54;5.18;;;1.10;;
12441;SDS011;6285;48.804;9.220;2023-03-31T09:35:25;1.98;;;1.05;;
12441;SDS011;6285;48.804;9.220;2023-03-31T09:37:57;1.42;;;0.80;;
12441;SDS011;6285;48.804;9.220;2023-03-31T09:40:26;3.28;;;1.23;;
12441;SDS011;6285;48.804;9.220;2023-03-31T09:42:55;2.70;;;1.23;;
12441;SDS011;6285;48.804;9.220;2023-03-31T09:45:23;2.75;;;1.27;;
12441;SDS011;6285;48.804;9.220;2023-03-31T09:47:50;2.10;;;1.17;;
12441;SDS011;6285;48.804;9.220;2023-03-31T09:50:18;2.40;;;1.15;;
12441;SDS011;6285;48.804;9.220;2023-03-31T09:52:48;2.75;;;1.35;;
12441;SDS011;6285;48.804;9.220;2023-03-31T09:55:17;4.53;;;1.40;;
12441;SDS011;6285;48.804;9.220;2023-03-31T09:57:45;6.47;;;2.95;;
12441;SDS011;6285;48.804;9.220;2023-03-31T10:00:16;2.83;;;1.38;;
12441;SDS011;6285;48.804;9.220;2023-03-31T10:02:44;3.42;;;1.40;;
12441;SDS011;6285;48.804;9.220;2023-03-31T10:05:21;3.63;;;1.25;;
12441;SDS011;6285;48.804;9.220;2023-03-31T10:07:52;3.90;;;1.50;;
12441;SDS011;6285;48.804;9.220;2023-03-31T10:10:24;4.60;;;1.45;;
12441;SDS011;6285;48.804;9.220;2023-03-31T10:12:52;2.42;;;1.33;;
12441;SDS011;6285;48.804;9.220;2023-03-31T10:15:22;2.25;;;1.38;;
12441;SDS011;6285;48.804;9.220;2023-03-31T10:17:51;5.05;;;1.83;;
12441;SDS011;6285;48.804;9.220;2023-03-31T10:20:21;2.10;;;1.15;;
12441;SDS011;6285;48.804;9.220;2023-03-31T10:22:54;2.55;;;1.35;;
12441;SDS011;6285;48.804;9.220;2023-03-31T10:25:22;7.05;;;1.90;;
12441;SDS011;6285;48.804;9.220;2023-03-31T10:27:50;3.35;;;1.27;;
12441;SDS011;6285;48.804;9.220;2023-03-31T10:30:20;3.25;;;1.30;;
12441;SDS011;6285;48.804;9.220;2023-03-31T10:32:48;2.85;;;1.20;;
12441;SDS011;6285;48.804;9.220;2023-03-31T10:35:20;3.92;;;1.60;;
12441;SDS011;6285;48.804;9.220;2023-03-31T10:37:48;3.47;;;1.52;;
12441;SDS011;6285;48.804;9.220;2023-03-31T10:40:18;5.30;;;1.80;;
12441;SDS011;6285;48.804;9.220;2023-03-31T10:42:48;4.13;;;1.48;;
12441;SDS011;6285;48.804;9.220;2023-03-31T10:45:23;5.07;;;1.70;;
12441;SDS011;6285;48.804;9.220;2023-03-31T10:47:51;3.17;;;1.27;;
12441;SDS011;6285;48.804;9.220;2023-03-31T10:50:19;5.50;;;1.85;;
12441;SDS011;6285;48.804;9.220;2023-03-31T10:52:52;3.45;;;1.52;;
12441;SDS011;6285;48.804;9.220;2023-03-31T10:55:28;7.80;;;2.53;;
12441;SDS011;6285;48.804;9.220;2023-03-31T10:58:00;4.95;;;1.88;;
12441;SDS011;6285;48.804;9.220;2023-03-31T11:00:30;6.32;;;1.70;;
12441;SDS011;6285;48.804;9.220;2023-03-31T11:03:03;4.22;;;1.23;;
12441;SDS011;6285;48.804;9.220;2023-03-31T11:05:34;5.10;;;1.65;;
12441;SDS011;6285;48.804;9.220;2023-03-31T11:08:09;4.53;;;1.90;;
12441;SDS011;6285;48.804;9.220;2023-03-31T11:10:50;5.38;;;1.70;;
12441;SDS011;6285;48.804;9.220;2023-03-31T11:13:20;3.53;;;1.58;;
12441;SDS011;6285;48.804;9.220;2023-03-31T11:15:53;4.97;;;1.50;;
12441;SDS011;6285;48.804;9.220;2023-03-31T11:18:28;2.95;;;1.30;;
12441;SDS011;6285;48.804;9.220;2023-03-31T11:20:59;5.45;;;1.80;;
12441;SDS011;6285;48.804;9.220;2023-03-31T11:23:30;6.05;;;1.20;;
12441;SDS011;6285;48.804;9.220;2023-03-31T11:26:09;6.43;;;1.27;;
12441;SDS011;6285;48.804;9.220;2023-03-31T11:31:23;3.10;;;0.90;;
12441;SDS011;6285;48.804;9.220;2023-03-31T11:33:56;3.42;;;0.60;;
12441;SDS011;6285;48.804;9.220;2023-03-31T11:36:29;2.17;;;0.80;;
12441;SDS011;6285;48.804;9.220;2023-03-31T11:39:13;1.75;;;0.60;;
12441;SDS011;6285;48.804;9.220;2023-03-31T11:41:43;1.60;;;0.70;;
12441;SDS011;6285;48.804;9.220;2023-03-31T11:44:13;2.35;;;0.57;;
12441;SDS011;6285;48.804;9.220;2023-03-31T11:46:42;1.20;;;0.75;;
12441;SDS011;6285;48.804;9.220;2023-03-31T11:49:14;1.90;;;1.00;;
12441;SDS011;6285;48.804;9.220;2023-03-31T11:51:43;1.50;;;0.60;;
12441;SDS011;6285;48.804;9.220;2023-03-31T11:54:17;2.75;;;1.05;;
12441;SDS011;6285;48.804;9.220;2023-03-31T11:56:51;1.10;;;0.63;;
12441;SDS011;6285;48.804;9.220;2023-03-31T11:59:20;1.58;;;0.80;;
12441;SDS011;6285;48.804;9.220;2023-03-31T12:01:52;1.63;;;0.60;;
12441;SDS011;6285;48.804;9.220;2023-03-31T12:04:24;2.78;;;1.13;;
12441;SDS011;6285;48.804;9.220;2023-03-31T12:06:59;1.17;;;0.50;;
12441;SDS011;6285;48.804;9.220;2023-03-31T12:09:31;3.95;;;1.67;;
12441;SDS011;6285;48.804;9.220;2023-03-31T12:12:03;2.50;;;0.52;;
12441;SDS011;6285;48.804;9.220;2023-03-31T12:14:32;1.42;;;0.70;;
12441;SDS011;6285;48.804;9.220;2023-03-31T12:17:03;1.10;;;0.70;;
12441;SDS011;6285;48.804;9.220;2023-03-31T12:19:32;1.05;;;0.70;;
12441;SDS011;6285;48.804;9.220;2023-03-31T12:22:03;2.17;;;0.80;;
12441;SDS011;6285;48.804;9.220;2023-03-31T12:24:31;1.13;;;0.50;;
12441;SDS011;6285;48.804;9.220;2023-03-31T12:27:03;1.02;;;0.70;;
12441;SDS011;6285;48.804;9.220;2023-03-31T12:29:33;1.60;;;0.80;;
12441;SDS011;6285;48.804;9.220;2023-03-31T12:32:03;1.85;;;0.75;;
12441;SDS011;6285;48.804;9.220;2023-03-31T12:34:31;2.00;;;0.90;;
12441;SDS011;6285;48.804;9.220;2023-03-31T12:37:05;2.90;;;1.00;;
12441;SDS011;6285;48.804;9.220;2023-03-31T12:39:38;1.38;;;0.77;;
12441;SDS011;6285;48.804;9.220;2023-03-31T12:42:28;0.93;;;0.50;;
12441;SDS011;6285;48.804;9.220;2023-03-31T12:45:00;2.05;;;0.60;;
12441;SDS011;6285;48.804;9.220;2023-03-31T12:47:34;2.85;;;0.80;;
12441;SDS011;6285;48.804;9.220;2023-03-31T12:50:13;1.83;;;0.63;;
12441;SDS011;6285;48.804;9.220;2023-03-31T12:52:43;2.78;;;0.80;;
12441;SDS011;6285;48.804;9.220;2023-03-31T12:57:50;1.70;;;0.77;;
12441;SDS011;6285;48.804;9.220;2023-03-31T13:00:19;1.70;;;0.68;;
12441;SDS011;6285;48.804;9.220;2023-03-31T13:02:48;2.40;;;0.80;;
12441;SDS011;6285;48.804;9.220;2023-03-31T13:08:01;1.23;;;0.77;;
12441;SDS011;6285;48.804;9.220;2023-03-31T13:10:29;4.93;;;1.13;;
12441;SDS011;6285;48.804;9.220;2023-03-31T13:13:01;2.72;;;1.10;;
12441;SDS011;6285;48.804;9.220;2023-03-31T13:15:29;3.25;;;1.27;;
12441;SDS011;6285;48.804;9.220;2023-03-31T13:17:57;3.78;;;0.95;;
12441;SDS011;6285;48.804;9.220;2023-03-31T13:20:32;3.35;;;0.80;;
12441;SDS011;6285;48.804;9.220;2023-03-31T13:23:04;2.80;;;0.90;;
12441;SDS011;6285;48.804;9.220;2023-03-31T13:28:12;2.75;;;0.80;;
12441;SDS011;6285;48.804;9.220;2023-03-31T13:30:44;1.55;;;0.60;;
12441;SDS011;6285;48.804;9.220;2023-03-31T13:33:33;1.02;;;0.60;;
12441;SDS011;6285;48.804;9.220;2023-03-31T13:36:12;3.40;;;0.90;;
12441;SDS011;6285;48.804;9.220;2023-03-31T13:38:43;2.15;;;0.70;;
12441;SDS011;6285;48.804;9.220;2023-03-31T13:41:28;0.80;;;0.47;;
12441;SDS011;6285;48.804;9.220;2023-03-31T13:44:07;1.73;;;0.45;;
12441;SDS011;6285;48.804;9.220;2023-03-31T13:49:48;1.50;;;0.55;;
12441;SDS011;6285;48.804;9.220;2023-03-31T13:52:19;2.88;;;0.80;;
12441;SDS011;6285;48.804;9.220;2023-03-31T13:55:05;0.88;;;0.40;;
12441;SDS011;6285;48.804;9.220;2023-03-31T13:57:56;1.25;;;0.57;;
12441;SDS011;6285;48.804;9.220;2023-03-31T14:00:43;1.17;;;0.93;;
12441;SDS011;6285;48.804;9.220;2023-03-31T14:03:16;1.25;;;0.68;;
12441;SDS011;6285;48.804;9.220;2023-03-31T14:05:49;2.25;;;0.80;;
12441;SDS011;6285;48.804;9.220;2023-03-31T14:08:18;1.73;;;0.50;;
12441;SDS011;6285;48.804;9.220;2023-03-31T14:10:49;3.25;;;0.60;;
12441;SDS011;6285;48.804;9.220;2023-03-31T14:13:17;2.33;;;0.70;;
12441;SDS011;6285;48.804;9.220;2023-03-31T14:15:46;0.90;;;0.60;;
12441;SDS011;6285;48.804;9.220;2023-03-31T14:18:19;1.85;;;0.70;;
12441;SDS011;6285;48.804;9.220;2023-03-31T14:20:48;3.72;;;1.83;;
12441;SDS011;6285;48.804;9.220;2023-03-31T14:23:29;1.33;;;0.65;;
12441;SDS011;6285;48.804;9.220;2023-03-31T14:26:05;1.42;;;0.70;;
12441;SDS011;6285;48.804;9.220;2023-03-31T14:28:41;2.08;;;0.73;;
12441;SDS011;6285;48.804;9.220;2023-03-31T14:31:18;1.88;;;1.20;;
12441;SDS011;6285;48.804;9.220;2023-03-31T14:33:50;2.95;;;1.00;;
12441;SDS011;6285;48.804;9.220;2023-03-31T14:36:22;2.20;;;1.30;;
12441;SDS011;6285;48.804;9.220;2023-03-31T14:38:52;1.45;;;0.70;;
12441;SDS011;6285;48.804;9.220;2023-03-31T14:41:20;3.13;;;0.55;;
12441;SDS011;6285;48.804;9.220;2023-03-31T14:43:53;1.58;;;0.57;;
12441;SDS011;6285;48.804;9.220;2023-03-31T14:46:22;1.63;;;0.75;;
12441;SDS011;6285;48.804;9.220;2023-03-31T14:48:49;2.83;;;0.90;;
12441;SDS011;6285;48.804;9.220;2023-03-31T14:51:17;1.35;;;0.90;;
12441;SDS011;6285;48.804;9.220;2023-03-31T14:53:45;1.35;;;0.60;;
12441;SDS011;6285;48.804;9.220;2023-03-31T14:56:12;2.92;;;0.68;;
12441;SDS011;6285;48.804;9.220;2023-03-31T14:58:41;2.42;;;0.80;;
12441;SDS011;6285;48.804;9.220;2023-03-31T15:01:11;2.10;;;0.60;;
12441;SDS011;6285;48.804;9.220;2023-03-31T15:03:42;1.73;;;0.90;;
12441;SDS011;6285;48.804;9.220;2023-03-31T15:06:10;2.33;;;0.82;;
12441;SDS011;6285;48.804;9.220;2023-03-31T15:08:37;2.33;;;0.70;;
12441;SDS011;6285;48.804;9.220;2023-03-31T15:11:05;1.45;;;0.77;;
12441;SDS011;6285;48.804;9.220;2023-03-31T15:13:33;3.35;;;0.70;;
12441;SDS011;6285;48.804;9.220;2023-03-31T15:18:44;1.42;;;0.77;;
12441;SDS011;6285;48.804;9.220;2023-03-31T15:21:17;3.28;;;0.60;;
12441;SDS011;6285;48.804;9.220;2023-03-31T15:23:45;1.33;;;0.80;;
12441;SDS011;6285;48.804;9.220;2023-03-31T15:26:12;2.70;;;0.80;;
12441;SDS011;6285;48.804;9.220;2023-03-31T15:28:47;1.65;;;0.88;;
12441;SDS011;6285;48.804;9.220;2023-03-31T15:31:16;2.58;;;0.85;;
12441;SDS011;6285;48.804;9.220;2023-03-31T15:33:44;2.80;;;1.50;;
12441;SDS011;6285;48.804;9.220;2023-03-31T15:36:12;1.63;;;0.70;;
12441;SDS011;6285;48.804;9.220;2023-03-31T15:38:40;1.50;;;0.70;;